Aviation Digital Data Service (ADDS)

Output produced by METARs form (0539 UTC 11 December 2017)
found at http://www.aviationweather.gov/adds/metars/
 
Forecast for: KGRK (GRAY/FT HOOD , TX, US)
Text: TAF KGRK 110000Z 1100/1206 26009KT 9999 SKC QNH3016INS
Forecast period: 0000 UTC 11 December 2017 to 0300 UTC 12 December 2017
Forecast type: FROM: standard forecast or significant change
Winds: from the W (260 degrees) at 10 MPH (9 knots; 4.7 m/s)
Visibility: 6 or more miles (10+ km)
Clouds: clear skies
Weather: no significant weather forecast for this period
Text: BECMG 1203/1204 34009KT 9999 SKC QNH3019INS TX23/1121Z TN07/1112Z
Forecast period: 0300 to 0600 UTC 12 December 2017
Forecast type: BECOMING: Conditions expected to become as follows by 0400 UTC 12 December 2017
Winds: from the NNW (340 degrees) at 10 MPH (9 knots; 4.7 m/s)
Visibility: 6 or more miles (10+ km)
Clouds: clear skies
Weather: no significant weather forecast for this period

Forecast for: KACT (WACO , TX, US)
Text: KACT 110528Z 1106/1206 24008KT P6SM SCT300
Forecast period: 0600 UTC 11 December 2017 to 0500 UTC 12 December 2017
Forecast type: FROM: standard forecast or significant change
Winds: from the WSW (240 degrees) at 9 MPH (8 knots; 4.2 m/s)
Visibility: 6 or more miles (10+ km)
Clouds: scattered clouds at 30000 feet AGL
Weather: no significant weather forecast for this period
Text: FM120500 29009KT P6SM SCT300
Forecast period: 0500 to 0600 UTC 12 December 2017
Forecast type: FROM: standard forecast or significant change
Winds: from the WNW (290 degrees) at 10 MPH (9 knots; 4.7 m/s)
Visibility: 6 or more miles (10+ km)
Clouds: scattered clouds at 30000 feet AGL
Weather: no significant weather forecast for this period